Tiempo atmosférico en la estación meteorológica de Moguer, El Arenosillo, Huelva (41 m.)



Fecha
DESCASC
Temp. máxima en grados centígrados (hora)
DESCASC
Temp. mínima en grados centígrados (hora)
DESCASC
Temp. media en grados centígrados
DESCASC
Racha de viento máxima en m/sg (hora)
DESCASC
Velocidad máxima media en intervalos de 10 minutos(hora)
DESCASC
Precipitaciones diarias en mm
DESCASC
Precipitaciones de 00:00 a 06:00 en mm
DESCASC
Precipitaciones de 06:00 a 12:00 en mm
DESCASC
Precipitaciones de 12:00 a 18:00 en mm
DESCASC
Precipitaciones de 18:00 a 24:00 en mm
DESCASC
05-04-2020 20.5 (15:40) 12.9 (02:00) 16.7 9.17 (15:10) 5 (16:20) 0 0 0 0 0
04-04-2020 19.7 (16:40) 9.7 (06:20) 14.7 11.94 (23:00) 5.28 (14:20) 0.6 0 0 0.6 0
03-04-2020 20 (12:40) 9.6 (08:30) 14.8 5.56 (07:30) 3.61 (06:40) 0 0 0 0 0
02-04-2020 19.4 (18:50) 8.8 (00:00) 14.1 12.22 (13:00) 7.78 (00:10) 0 0 0 0 0
01-04-2020 16 (18:50) 8.4 (00:00) 12.2 16.11 (21:20) 8.89 (23:30) 6.8 0 0 3.2 3.6
31-03-2020 17.6 (15:50) 11.5 (00:00) 14.6 13.06 (04:10) 8.61 (17:30) 4 2.1 1.7 0.2 0
30-03-2020 18.1 (13:50) 9.4 (00:00) 13.8 11.39 (16:50) 7.5 (16:50) 15.8 0 0 2.1 13.7
29-03-2020 19.2 (15:40) 10.4 (00:00) 14.8 6.11 (17:30) 4.72 (16:40) 0 0 0 0 0
28-03-2020 18.6 (14:40) 7.5 (00:00) 13.1 6.94 (08:50) 4.17 (08:50) 0 0 0 0 0
27-03-2020 16.2 (14:20) 8.1 (00:00) 12.2 7.22 (17:40) 5.28 (15:10) 0 0 0 0 0
26-03-2020 19.2 (16:10) 10.7 (00:00) 15 8.61 (17:40) 5.28 (14:10) 0 0 0 0 0
25-03-2020 18 (16:20) 13.7 (00:00) 15.8 5.56 (11:50) 3.61 (02:40) 0.2 0 0.2 0 0
24-03-2020 21.5 (14:40) 10.2 (00:00) 15.8 8.61 (07:30) 5.28 (08:50) 1.6 1.6 0 0 0
23-03-2020 19.2 (15:20) 9.2 (00:00) 14.2 8.33 (11:00) 4.44 (15:50) -- 0 0 2.6 --
22-03-2020 16.2 (15:30) 6.5 (04:10) 11.4 4.17 (10:40) 2.78 (14:30) 0 0 0 0 0
21-03-2020 15.3 (16:00) 8.2 (00:00) 11.8 9.17 (10:40) 6.11 (10:40) 12.4 0.1 4.9 7.3 0.1
20-03-2020 18.2 (16:30) 10.5 (00:00) 14.4 12.78 (21:00) 7.22 (21:00) 25.9 0 0 1.8 24.1
19-03-2020 22.7 (14:10) 12.5 (00:00) 17.6 8.33 (11:20) 4.72 (07:30) 0 0 0 0 0
18-03-2020 24.3 (15:50) 11.4 (00:00) 17.8 10 (14:30) 5.56 (11:20) 0.5 0.5 0 0 0
17-03-2020 16.9 (16:40) 7.3 (00:00) 12.1 12.78 (12:40) 5.83 (10:20) 13.4 4.8 3 3 2.6
16-03-2020 18.9 (15:30) 8 (00:00) 13.4 13.61 (14:30) 6.94 (14:30) 0 0 0 0 0
15-03-2020 19.1 (14:50) 10.1 (00:00) 14.6 11.11 (23:50) 6.11 (23:59) 0 0 0 0 0
14-03-2020 18.9 (15:00) 11.4 (00:00) 15.1 4.72 (17:40) 3.33 (17:50) 0 0 0 0 0
13-03-2020 17.6 (15:20) 12.8 (04:20) 15.2 5.28 (15:40) 3.61 (18:50) 0 0 0 0 0
12-03-2020 18.3 (13:10) 10.8 (00:00) 14.5 5.83 (04:40) 3.89 (04:20) 0 0 0 0 0
11-03-2020 28.7 (15:00) 11.8 (00:00) 20.3 10.28 (11:00) 6.11 (10:40) 0 0 0 0 0
10-03-2020 28.7 (16:10) 11.1 (00:00) 19.9 11.94 (11:20) 6.67 (11:40) 0 0 0 0 0
09-03-2020 24.7 (17:00) 9.8 (00:00) 17.3 7.78 (16:10) 4.72 (03:20) 0 0 0 0 0

Gráficas

Temp. máximas Temp. mínimas Temp. medias Precipitaciones Rachas de viento máximas Velocidades máximas media en intervalos de 10 minutos

Datos horarios

Fecha y hora oficial Temperatura (ºC) Velocidad del viento (km/h) Dirección del viento Racha (km/h) Dirección de racha Precipitación (mm) Presión (hPa) Tendencia (hPa) Humedad (%)
2020-04-07 23:00:00 16.8 3 Oeste 9 Oeste 0 1018.3 1 90
2020-04-07 22:00:00 17.1 5 Oeste 11 Oeste 0 1017.9 0.6 88
2020-04-07 21:00:00 17.5 5 Noroeste 13 Oeste 0 1017.1 -0.2 85
2020-04-07 20:00:00 18.7 6 Oeste 15 Oeste 0 1017.3 -0.1 78
2020-04-07 19:00:00 19.1 9 Oeste 18 Sudoeste 0 1017.3 -0.5 77
2020-04-07 18:00:00 19.5 9 Oeste 16 Oeste 0 1017.3 -0.8 74
2020-04-07 17:00:00 20.1 6 Sudoeste 14 Sudoeste 0 1017.4 -1.3 73
2020-04-07 16:00:00 20.4 6 Sudoeste 12 Sudoeste 0 1017.8 -1.1 73
2020-04-07 15:00:00 19.5 6 Sudoeste 12 Sudoeste 0 1018.1 -0.9 76
2020-04-07 14:00:00 19 6 Sudoeste 16 Sur 0 1018.7 0.2 74
2020-04-07 13:00:00 18.8 11 Sur 17 Sur 0 1018.9 0.7 76
2020-04-07 12:00:00 18.6 12 Sur 17 Sur 0 1019 1.4 77
2020-04-07 11:00:00 17 7 Sudeste 19 Sudeste 0 1018.5 1.1 84
2020-04-07 10:00:00 15.8 9 Sudeste 22 Sur 0 1018.2 1.2 86
2020-04-07 09:00:00 15.3 8 Sudeste 24 Sudeste 0 1017.6 0.1 88
2020-04-07 08:00:00 14.7 10 Sudeste 22 Sudeste 0 1017.4 -0.3 89
2020-04-07 07:00:00 14.6 8 Sudeste 18 Sudeste 0 1017 -0.7 95
2020-04-07 06:00:00 14.2 5 Este 8 Sudeste 0 1017.5 -0.3 97
2020-04-07 05:00:00 15.7 4 Sur 16 Sudoeste 0 1017.7 -0.1 96
2020-04-07 04:00:00 15.9 11 Sudoeste 15 Sudoeste 0 1017.7 0 96
2020-04-07 03:00:00 16.2 4 Sur 13 Sur 0 1017.8 0.1 99
2020-04-07 02:00:00 14.5 0 Calma 8 Sur 0 1017.8 0.3 99
2020-04-07 01:00:00 14.2 0 Calma 9 Sur 0 1017.7 0.5 99
2020-04-07 00:00:00 14.9 0 Calma 7 Sudeste 0 1017.7 1 99
2020-04-06 23:00:00 15.2 2 Sur 6 Sur 0 1017.5 1.3 98
2020-04-06 22:00:00 16.1 0 Calma 4 Sudoeste 0 1017.2 0.9 96
2020-04-06 21:00:00 16.9 4 Oeste 20 Sur 0 1016.7 0.6 97
2020-04-06 20:00:00 17.1 11 Sur 19 Sur 0.2 1016.2 -0.2 96
2020-04-06 19:00:00 18 11 Sur 19 Sur 0 1016.3 -0.6 91
2020-04-06 18:00:00 18 14 Sur 29 Sur 0 1016.1 -0.9 90
2020-04-06 17:00:00 18.5 12 Sur 27 Sudeste 0 1016.4 -0.4 87
2020-04-06 16:00:00 18.2 14 Sur 25 Sur 0 1016.9 -0.1 88
2020-04-06 15:00:00 17.6 13 Sur 36 Sur 0 1017 0 90
2020-04-06 14:00:00 18.1 14 Sur 29 Sur 0 1016.8 0.5 87
2020-04-06 13:00:00 16.9 12 Sur 27 Sur 0 1017 1.3 92
2020-04-06 12:00:00 16.4 15 Sur 31 Sur 0 1017 2 93
2020-04-06 11:00:00 16.3 14 Sur 30 Sur 0 1016.3 2 93
2020-04-06 10:00:00 16.3 12 Sudeste 28 Sur 0 1015.7 2.2 94
2020-04-06 09:00:00 15.9 13 Sur 34 Sur 0 1015 1.8 96
2020-04-06 08:00:00 15.4 21 Sur 34 Sur 0 1014.3 1.2 95
2020-04-06 07:00:00 16.1 19 Sur 31 Sur 0.2 1013.5 0.1 95
2020-04-06 06:00:00 16.2 14 Sur 39 Sur 0.1 1013.2 -0.6 94
2020-04-06 05:00:00 16 22 Sur 34 Sur 0 1013.1 -0.9 92
2020-04-06 04:00:00 15.8 18 Sur 34 Sur 0.3 1013.4 -0.5 93
2020-04-06 03:00:00 15.5 14 Sur 33 Sur 5.1 1013.8 -0.1 97
2020-04-06 02:00:00 15.9 15 Sur 30 Sur 0.9 1014 0.6 95
2020-04-06 01:00:00 16.6 16 Sur 30 Sudeste 0 1013.9 1 93
2020-04-06 00:00:00 16.8 13 Sur 27 Sur 0 1013.9 1.5 90
2020-04-05 23:00:00 17.2 14 Sur 31 Sur 0 1013.4 1.5 88
2020-04-05 22:00:00 17.2 15 Sur 30 Sur 0 1012.9 1 88
2020-04-05 21:00:00 17.4 16 Sur 27 Sur 0 1012.4 0.4 87
2020-04-05 20:00:00 17.5 18 Sur 31 Sur 0 1011.9 0 85
2020-04-05 19:00:00 17.8 14 Sur 32 Sur 0 1011.9 0.1 83
2020-04-05 18:00:00 18.3 18 Sur 32 Sur 0 1012 -0.3 81
2020-04-05 17:00:00 19.2 15 Sur 30 Sur 0 1011.9 -0.4 75
2020-04-05 16:00:00 20.3 15 Sur 33 Sur 0 1011.8 -0.9 72
2020-04-05 15:00:00 19.1 17 Sur 31 Sur 0 1012.3 -0.3 79
2020-04-05 14:00:00 19 14 Sur 27 Sur 0 1012.3 -0.5 80
2020-04-05 13:00:00 18.5 11 Sur 28 Sudeste 0 1012.7 0.6 77
2020-04-05 12:00:00 18.7 13 Sudeste 24 Sudeste 0 1012.6 0.7 74
2020-04-05 11:00:00 17.5 12 Sudeste 27 Sudeste 0 1012.8 1.8 75
2020-04-05 10:00:00 15.4 11 Sudeste 22 Sudeste 0 1012.1 1.8 79
2020-04-05 09:00:00 13.5 6 Este 26 Sudeste 0 1011.9 1.9 86
2020-04-05 08:00:00 15.6 16 Sudeste 30 Sudeste 0 1011 0.9 81
2020-04-05 07:00:00 15.7 15 Sudeste 31 Sur 0 1010.3 -0.5 81
2020-04-05 06:00:00 15.5 13 Sudeste 27 Sur 0 1010 -0.4 84
2020-04-05 05:00:00 15.9 14 Sudeste 30 Sur 0 1010.1 -0.5 82
2020-04-05 04:00:00 16.1 13 Sur 28 Sur 0 1010.8 0.7 82
2020-04-05 03:00:00 15.6 14 Sudeste 31 Sudeste 0 1010.4 0.3 81
2020-04-05 02:00:00 13 5 Sudeste 21 Sudeste 0 1010.6 0.4 87
2020-04-05 01:00:00 14.6 6 Sudeste 25 Sudeste 0 1010.1 0.5 80
2020-04-05 00:00:00 15.2 11 Sudeste 22 Sudeste 0 1010.1 1.1 77
2020-04-04 23:00:00 16.5 11 Sudeste 43 Sudeste 0 1010.2 1.8 77
2020-04-04 22:00:00 16.8 14 Sudeste 26 Sudeste 0 1009.6 1.5 73
2020-04-04 21:00:00 17.2 14 Sudeste 30 Sudeste 0 1009 1.2 72
2020-04-04 20:00:00 18.3 15 Sudeste 28 Sur 0 1008.4 0.5 69
2020-04-04 19:00:00 18.4 11 Sudeste 23 Sudeste 0 1008.1 0.1 75
2020-04-04 18:00:00 18.5 13 Sudeste 25 Sur 0 1007.8 0.2 73
2020-04-04 17:00:00 19 14 Sur 23 Sudeste 0 1007.9 0.6 68
2020-04-04 16:00:00 18.7 12 Sur 25 Sudeste 0 1008 0.2 74
2020-04-04 15:00:00 17.3 14 Este 34 Este 0.1 1007.6 -1 75
2020-04-04 14:00:00 16.2 16 Este 33 Este 0.3 1007.3 -0.8 81
2020-04-04 13:00:00 15.6 14 Sudeste 34 Este 0.2 1007.8 0 80
2020-04-04 12:00:00 16.6 13 Sudeste 26 Sudeste 0 1008.6 1.6 67
2020-04-04 11:00:00 14.5 8 Este 18 Este 0 1008.1 1.8 71
2020-04-04 10:00:00 12.9 7 Nordeste 17 Nordeste 0 1007.8 1.6 77
2020-04-04 09:00:00 11.4 10 Nordeste 22 Nordeste 0 1007 0.4 83
2020-04-04 08:00:00 10.7 15 Nordeste 21 Nordeste 0 1006.3 -0.6 86
2020-04-04 07:00:00 10.7 14 Nordeste 22 Nordeste 0 1006.2 -1.2 88
2020-04-04 06:00:00 10.2 14 Nordeste 22 Nordeste 0 1006.6 -1.5 88
2020-04-04 05:00:00 10.3 13 Nordeste 20 Nordeste 0 1006.9 -1.5 88
2020-04-04 04:00:00 11.2 12 Nordeste 17 Nordeste 0 1007.4 -1.3 83
2020-04-04 03:00:00 11.7 10 Nordeste 18 Este 0 1008.1 -0.7 77
2020-04-04 02:00:00 12.6 10 Este 22 Este 0 1008.4 -0.7 71
2020-04-04 01:00:00 13.2 10 Este 20 Este 0 1008.7 -0.2 69
2020-04-04 00:00:00 13.5 6 Este 18 Sudeste 0 1008.8 0.4 72
2020-04-03 23:00:00 15.1 7 Sudeste 18 Sur 0 1009.1 0.8 72
2020-04-03 22:00:00 14.9 0 Calma 7 Sur 0 1008.9 0.5 89
2020-04-03 21:00:00 16.4 5 Sur 9 Sudoeste 0 1008.4 -0.3 86
2020-04-03 20:00:00 18.3 5 Sudoeste 14 Sudoeste 0 1008.3 -0.7 77
2020-04-03 19:00:00 18.7 5 Oeste 13 Sudoeste 0 1008.4 -1.4 72
2020-04-03 18:00:00 18.9 9 Sudoeste 15 Sudoeste 0 1008.7 -1.9 72
2020-04-03 17:00:00 18.9 10 Sudoeste 16 Sudoeste 0 1009 -2.1 71
2020-04-03 16:00:00 18.7 10 Sur 17 Sur 0 1009.8 -1.8 74
2020-04-03 15:00:00 18.7 10 Sur 17 Sur 0 1010.6 -1.2 70
2020-04-03 14:00:00 18.3 12 Sur 18 Sur 0 1011.1 -0.5 66
2020-04-03 13:00:00 19.4 9 Sur 17 Sudeste 0 1011.6 -0.2 66
2020-04-03 12:00:00 18.7 8 Este 17 Este 0 1011.8 0.4 57
2020-04-03 11:00:00 16.7 9 Nordeste 16 Este 0 1011.6 1 64
2020-04-03 10:00:00 13.4 9 Nordeste 17 Nordeste 0 1011.8 1.7 75
2020-04-03 09:00:00 10.8 7 Nordeste 17 Nordeste 0 1011.4 1.4 87
2020-04-03 08:00:00 10.2 10 Nordeste 20 Norte 0 1010.6 0.4 87
2020-04-03 07:00:00 10.6 12 Norte 20 Norte 0 1010.1 -0.7 85
2020-04-03 06:00:00 10.6 5 Norte 18 Norte 0 1010 -1.1 85
2020-04-03 05:00:00 11.3 13 Norte 20 Norte 0 1010.2 -1.6 79
2020-04-03 04:00:00 12.3 11 Norte 18 Norte 0 1010.8 -1 77
2020-04-03 03:00:00 12 10 Norte 19 Norte 0 1011.1 -0.4 75
2020-04-03 02:00:00 12.7 11 Norte 17 Norte 0 1011.8 0.6 73
2020-04-03 01:00:00 12.2 5 Norte 11 Noroeste 0 1011.8 1.3 74
2020-04-03 00:00:00 12.9 6 Norte 10 Norte 0 1011.5 1.9 69
2020-04-02 23:00:00 13.2 6 Norte 11 Norte 0 1011.2 2.1 66
2020-04-02 22:00:00 14.4 6 Norte 9 Norte 0 1010.5 1.7 62
2020-04-02 21:00:00 16.6 4 Noroeste 17 Noroeste 0 1009.6 1.1 56
2020-04-02 20:00:00 18.4 11 Noroeste 25 Norte 0 1009.1 0.9 45
2020-04-02 19:00:00 18.9 15 Noroeste 28 Noroeste 0 1008.8 0.6 44
2020-04-02 18:00:00 19.2 15 Noroeste 29 Noroeste 0 1008.5 0.3 49
2020-04-02 17:00:00 18.7 14 Noroeste 27 Noroeste 0 1008.2 -0.2 47
2020-04-02 16:00:00 17 13 Noroeste 24 Noroeste 0 1008.2 -0.2 54
2020-04-02 15:00:00 17.2 11 Noroeste 25 Noroeste 0 1008.2 0 54
2020-04-02 14:00:00 16.4 8 Noroeste 30 Noroeste 0 1008.4 0.8 58
2020-04-02 13:00:00 15 9 Noroeste 44 Noroeste 0 1008.4 1.6 59
2020-04-02 12:00:00 14.4 10 Noroeste 24 Noroeste 0 1008.2 2.3 70
2020-04-02 11:00:00 12.1 10 Noroeste 23 Norte 0 1007.6 2.5 81
2020-04-02 10:00:00 11.5 10 Norte 19 Norte 0 1006.8 2.1 84
2020-04-02 09:00:00 10 7 Norte 13 Norte 0 1005.9 0.9 91
2020-04-02 08:00:00 9.8 8 Norte 18 Norte 0 1005.1 -0.3 88
2020-04-02 07:00:00 10.2 4 Norte 14 Norte 0 1004.7 -0.9 85
2020-04-02 06:00:00 10.5 6 Noroeste 16 Noroeste 0 1005 -1.5 81
2020-04-02 05:00:00 12.6 13 Oeste 27 Oeste 0 1005.4 -1.4 68
2020-04-02 04:00:00 12.8 12 Oeste 29 Oeste 0 1005.6 -1.6 70
2020-04-02 03:00:00 13.2 11 Oeste 30 Oeste 0 1006.5 -0.9 73
2020-04-02 02:00:00 13.8 12 Oeste 30 Sudoeste 0 1006.8 -0.9 75
2020-04-02 01:00:00 14 15 Sudoeste 42 Sudoeste 0 1007.2 -0.3 81
2020-04-02 00:00:00 13.7 28 Sudoeste 46 Sudoeste 0.2 1007.4 0.5 83
2020-04-01 23:00:00 14 18 Oeste 45 Sudoeste 0.4 1007.7 0.6 81
2020-04-01 22:00:00 13.5 14 Sudoeste 58 Sudoeste 3 1007.5 0.2 88
2020-04-01 21:00:00 15.1 20 Sudoeste 41 Sudoeste 0 1006.9 -0.7 77
2020-04-01 20:00:00 15.3 11 Sudoeste 30 Sudoeste 0 1007.1 -0.6 77
2020-04-01 19:00:00 15.6 17 Sudoeste 26 Sudoeste 0 1007.3 -0.7 72
2020-04-01 18:00:00 15 11 Oeste 37 Sudoeste 0 1007.6 -0.8 69
2020-04-01 17:00:00 15.3 19 Sudoeste 33 Sudoeste 0 1007.7 -1 67
2020-04-01 16:00:00 15.4 15 Sudoeste 33 Sudoeste 0 1008 -1 77
2020-04-01 15:00:00 14.7 14 Sudoeste 21 Sudoeste 0 1008.4 -0.7 71
2020-04-01 14:00:00 13.1 8 Sur 16 Sur 3.2 1008.7 -0.2 91
2020-04-01 13:00:00 14.3 8 Sur 19 Sur 0 1009 0.3 73
2020-04-01 12:00:00 15.2 9 Sur 18 Sur 0 1009.1 0.8 64
2020-04-01 11:00:00 14.5 6 Sudeste 14 Sudeste 0 1008.9 1.2 63
2020-04-01 10:00:00 11.8 8 Este 14 Este 0 1008.7 1.5 75
2020-04-01 09:00:00 8.9 6 Este 12 Este 0 1008.3 1.5 89
2020-04-01 08:00:00 9.1 5 Este 10 Este 0 1007.7 1 92
2020-04-01 07:00:00 9.6 6 Nordeste 11 Nordeste 0 1007.2 0.5 89
2020-04-01 06:00:00 9 6 Nordeste 12 Norte 0 1006.8 0 90
2020-04-01 05:00:00 8.9 6 Nordeste 11 Norte 0 1006.7 0.1 89
2020-04-01 04:00:00 9.2 6 Norte 11 Norte 0 1006.7 -0.1 88
2020-04-01 03:00:00 10.5 6 Norte 17 Norte 0 1006.8 0.6 86
2020-04-01 02:00:00 11.5 5 Norte 17 Norte 0 1006.6 1.4 77
2020-04-01 01:00:00 12.3 11 Noroeste 19 Noroeste 0 1006.8 2.6 72
2020-04-01 00:00:00 13 6 Noroeste 14 Noroeste 0 1006.2 2.9 73
2020-03-31 23:00:00 14 8 Noroeste 34 Sudoeste 0 1005.2 2.8 77
2020-03-31 22:00:00 14.7 17 Sudoeste 33 Sudoeste 0 1004.2 2.5 77
2020-03-31 21:00:00 14.5 18 Sudoeste 41 Sudoeste 0 1003.3 2.1 74
2020-03-31 20:00:00 15.1 30 Sudoeste 43 Sudoeste 0 1002.4 1.9 72
2020-03-31 19:00:00 16.4 20 Sudoeste 38 Sudoeste 0 1001.7 1.2 78
2020-03-31 18:00:00 16.9 19 Sudoeste 45 Sudoeste 0 1001.2 1 73
2020-03-31 17:00:00 16.8 25 Sudoeste 36 Sudoeste 0 1000.5 0.3 71
2020-03-31 16:00:00 16.8 17 Sudoeste 29 Sudoeste 0 1000.5 0.5 72
2020-03-31 15:00:00 17.1 12 Sudoeste 34 Sudoeste 0 1000.2 0.6 81
2020-03-31 14:00:00 16 24 Sudoeste 37 Sudoeste 0.2 1000.2 0.9 88
2020-03-31 13:00:00 15.9 23 Sudoeste 34 Sudoeste 0 1000 1 85
2020-03-31 12:00:00 17.1 18 Sudoeste 31 Sudoeste 0 999.6 1 82
2020-03-31 11:00:00 15.9 16 Sudoeste 25 Sudoeste 1.7 999.3 1.2 86
2020-03-31 10:00:00 15.3 13 Sudoeste 23 Sudoeste 0 999 1.5 88
2020-03-31 09:00:00 14.8 15 Sudoeste 28 Sudoeste 0 998.6 1.4 87
2020-03-31 08:00:00 14.3 13 Sudoeste 32 Sudoeste 0 998.1 0.7 84
2020-03-31 07:00:00 14.5 21 Sudoeste 35 Sudoeste 0 997.5 0.2 84
2020-03-31 06:00:00 14.6 16 Sudoeste 30 Sudoeste 0 997.2 -0.5 91
2020-03-31 05:00:00 14.3 20 Sudoeste 47 Sudoeste 0.4 997.4 -0.3 88
2020-03-31 04:00:00 14 20 Sur 36 Sur 0.6 997.3 -2.6 99
2020-03-31 03:00:00 12.6 12 Sudeste 32 Este 0 997.7 -2.2 99
2020-03-31 02:00:00 12.3 16 Este 34 Este 1 997.7 -3.2 99
2020-03-31 01:00:00 12.1 13 Este 37 Este 0.1 999.9 -1.4 98
2020-03-31 00:00:00 12.2 21 Este 39 Sudeste 6 999.9 -2.2 98
2020-03-30 23:00:00 12.4 17 Sudeste 41 Sudeste 2.1 1000.9 -2 98
2020-03-30 22:00:00 12.5 12 Este 23 Este 4.6 1001.3 -2.2 97
2020-03-30 21:00:00 12.9 8 Este 16 Este 0.6 1002.1 -1.9 96
2020-03-30 20:00:00 13.3 3 Nordeste 8 Norte 0 1002.9 -2.3 94
2020-03-30 19:00:00 13.6 5 Norte 13 Nordeste 0.4 1003.5 -1.6 93
2020-03-30 18:00:00 13.3 4 Norte 21 Sudoeste 0.5 1004 -2 91
2020-03-30 17:00:00 13.9 18 Sudoeste 41 Sudoeste 1.6 1005.2 -1.4 80
2020-03-30 16:00:00 16.3 16 Sudoeste 23 Sudoeste 0 1005.1 -1.8 81
2020-03-30 15:00:00 16.6 17 Sudoeste 22 Sudoeste 0 1006 -1.6 77
2020-03-30 14:00:00 17.4 14 Sur 23 Sudoeste 0 1006.6 -1.1 72
2020-03-30 13:00:00 17.1 15 Sur 23 Sur 0 1006.9 -1 73
2020-03-30 12:00:00 16.3 11 Sur 19 Sudoeste 0 1007.6 -0.5 82
2020-03-30 11:00:00 14.8 8 Sudeste 18 Sudeste 0 1007.7 0 90
2020-03-30 10:00:00 12 6 Este 16 Este 0 1007.9 -0.2 97
2020-03-30 09:00:00 10.7 4 Nordeste 15 Este 0 1008.1 -0.5 98
2020-03-30 08:00:00 10.6 7 Este 16 Este 0 1007.7 -1.6 99
2020-03-30 07:00:00 10.6 5 Este 12 Este 0 1008.1 -1.8 99
2020-03-30 06:00:00 10.7 6 Este 10 Nordeste 0 1008.6 -1.9 98
2020-03-30 05:00:00 10.2 4 Este 7 Este 0 1009.3 -1.7 98
2020-03-30 04:00:00 10.1 0 Calma 4 Este 0 1009.9 -1.8 97
2020-03-30 03:00:00 10.8 0 Calma 4 Este 0 1010.5 -1.4 96
2020-03-30 02:00:00 11 2 Este 5 Este 0 1011 -1.1 97
2020-03-30 01:00:00 11.2 4 Este 5 Este 0 1011.7 -0.2 95
2020-03-30 00:00:00 11.9 0 Calma 4 Nordeste 0 1011.9 0.2 91
2020-03-29 23:00:00 14.4 0 Calma 12 Sudoeste 0 1012.1 0.5 84
2020-03-29 22:00:00 15.7 6 Sudoeste 13 Sudoeste 0 1011.9 0 85
2020-03-29 21:00:00 16 9 Sudoeste 15 Sudoeste 0 1011.7 -0.4 84
2020-03-29 20:00:00 16.7 7 Sudoeste 15 Sudoeste 0 1011.6 -0.8 80
2020-03-29 19:00:00 17.4 10 Sudoeste 17 Sudoeste 0 1011.9 -1.3 78
2020-03-29 18:00:00 17.2 13 Sudoeste 22 Sudoeste 0 1012.1 -1.4 77
2020-03-29 17:00:00 17.3 17 Sudoeste 22 Sudoeste 0 1012.4 -1.6 74
2020-03-29 16:00:00 17.9 15 Sudoeste 21 Sudoeste 0 1013.2 -1.4 68
2020-03-29 15:00:00 18.2 13 Sur 18 Sur 0 1013.5 -1.3 61
2020-03-29 14:00:00 18.8 10 Sur 16 Sur 0 1014 -0.7 63
2020-03-29 13:00:00 17.7 9 Sur 15 Sur 0 1014.6 0.1 67
2020-03-29 12:00:00 18 10 Sudeste 22 Este 0 1014.8 0.4 59
2020-03-29 11:00:00 16.1 9 Este 18 Este 0 1014.7 0.9 70
2020-03-29 10:00:00 13.6 9 Nordeste 15 Nordeste 0 1014.5 0.9 81
2020-03-29 09:00:00 10.6 8 Nordeste 13 Nordeste 0 1014.4 0.9 95
2020-03-29 08:00:00 11.1 8 Nordeste 13 Nordeste 0 1013.8 0.3 92
2020-03-29 07:00:00 10.7 5 Nordeste 8 Nordeste 0 1013.6 -0.6 93
2020-03-29 06:00:00 12.8 4 Este 13 Sudeste 0 1013.5 -1.1 78
2020-03-29 05:00:00 14 5 Sur 17 Sur 0 1013.5 -1.1 81
2020-03-29 03:00:00 14.4 9 Sur 19 Sur 0 1014.6 0.3 81
2020-03-29 01:00:00 14.9 9 Sur 17 Sur 0 1014.6 0.6 81
2020-03-29 00:00:00 15.1 11 Sur 17 Sur 0 1014.4 1.2 78
2020-03-28 23:00:00 14.8 7 Sur 15 Sur 0 1014.3 2.1 80
2020-03-28 22:00:00 14.2 8 Sur 14 Sur 0 1014 2.3 84
2020-03-28 21:00:00 13.1 2 Sudeste 6 Sur 0 1013.2 1.9 83
2020-03-28 20:00:00 15.6 0 Calma 8 Sudoeste 0 1012.2 1 77
2020-03-28 19:00:00 17.2 4 Sudoeste 11 Sudoeste 0 1011.7 0.7 71
2020-03-28 18:00:00 18 6 Sudoeste 16 Sudoeste 0 1011.3 0.1 66
2020-03-28 17:00:00 17.9 12 Sudoeste 17 Sudoeste 0 1011.2 -0.1 66
2020-03-28 16:00:00 18.2 12 Sudoeste 19 Sur 0 1011 -0.4 62
2020-03-28 15:00:00 17.9 13 Sur 18 Sur 0 1011.2 -0.2 67
2020-03-28 14:00:00 18 11 Sur 18 Sudoeste 0 1011.3 -0.1 68
2020-03-28 13:00:00 17.6 12 Sur 19 Sur 0 1011.4 0.6 67
2020-03-28 12:00:00 17.7 10 Sur 18 Este 0 1011.4 1.1 66
2020-03-28 11:00:00 16.9 10 Sudeste 21 Este 0 1011.4 1.9 68
2020-03-28 10:00:00 13.8 11 Nordeste 23 Este 0 1010.8 1.9 79
2020-03-28 09:00:00 11.1 14 Este 25 Este 0 1010.3 2 91
2020-03-28 08:00:00 8.7 12 Nordeste 23 Este 0 1009.5 1.6 98
2020-03-28 07:00:00 8.1 13 Nordeste 23 Este 0 1008.9 0.8 98
2020-03-28 06:00:00 7.9 11 Nordeste 18 Este 0 1008.3 0.3 98
2020-03-28 05:00:00 8 7 Este 16 Este 0 1007.9 -0.3 97
2020-03-28 04:00:00 8.8 7 Este 14 Este 0 1008.1 -0.1 96
2020-03-28 03:00:00 9 8 Este 14 Nordeste 0 1008 0 96
2020-03-28 02:00:00 9.3 8 Nordeste 14 Nordeste 0 1008.2 0.9 96
2020-03-28 01:00:00 9.6 8 Nordeste 13 Nordeste 0 1008.2 1 94
2020-03-28 00:00:00 10.6 3 Nordeste 8 Oeste 0 1008 1.4 87
2020-03-27 23:00:00 14.4 4 Oeste 13 Oeste 0 1007.3 1.3 79
2020-03-27 22:00:00 14.9 8 Oeste 20 Oeste 0 1007.2 1.7 78
2020-03-27 21:00:00 14.7 5 Sudoeste 16 Sudoeste 0 1006.6 1.3 78
2020-03-27 20:00:00 14.6 10 Sudoeste 21 Sudoeste 0 1006 1 75
2020-03-27 19:00:00 15.2 13 Sudoeste 22 Sudoeste 0 1005.5 0.4 71
2020-03-27 18:00:00 15.6 15 Sudoeste 26 Sudoeste 0 1005.3 0.1 69
2020-03-27 17:00:00 15.7 17 Sudoeste 24 Sudoeste 0 1005 -0.8 71
2020-03-27 16:00:00 15.7 17 Sudoeste 26 Sudoeste 0 1005.1 -1.1 67
2020-03-27 15:00:00 15.2 18 Sudoeste 26 Sudoeste 0 1005.2 -1.5 68
2020-03-27 14:00:00 15.4 10 Sudoeste 21 Sudoeste 0 1005.8 -1 62
2020-03-27 13:00:00 14.2 9 Oeste 21 Oeste 0 1006.2 -0.1 66
2020-03-27 12:00:00 13.6 9 Oeste 20 Oeste 0 1006.7 1.1 68
2020-03-27 11:00:00 13.2 11 Oeste 24 Norte 0 1006.8 1.8 69
2020-03-27 10:00:00 12.2 13 Noroeste 23 Noroeste 0 1006.3 1.8 74
2020-03-27 09:00:00 10.7 8 Noroeste 18 Noroeste 0 1005.6 1 84
2020-03-27 08:00:00 8.7 8 Noroeste 17 Noroeste 0 1005 0.5 93
2020-03-27 07:00:00 8.6 10 Noroeste 19 Noroeste 0 1004.5 -0.3 93
2020-03-27 06:00:00 9.3 12 Noroeste 24 Noroeste 0 1004.6 -0.6 89
2020-03-27 05:00:00 10.1 9 Noroeste 18 Noroeste 0 1004.5 -1.1 91
2020-03-27 04:00:00 10.3 8 Noroeste 18 Noroeste 0 1004.8 -1.4 92
2020-03-27 03:00:00 10.6 9 Noroeste 21 Norte 0 1005.2 -1.1 90
2020-03-27 02:00:00 11.3 12 Noroeste 19 Noroeste 0 1005.6 -0.5 89
2020-03-27 01:00:00 11.8 9 Noroeste 19 Noroeste 0 1006.2 0 87
2020-03-27 00:00:00 13.1 13 Noroeste 26 Noroeste 0 1006.3 0.6 83
2020-03-26 23:00:00 14.1 13 Noroeste 25 Noroeste 0 1006.1 1 79
2020-03-26 22:00:00 15.2 12 Noroeste 22 Noroeste 0 1006.2 1.1 73
2020-03-26 21:00:00 16.8 13 Noroeste 24 Noroeste 0 1005.7 0.6 65
2020-03-26 20:00:00 17.2 11 Noroeste 19 Oeste 0 1005.1 -0.5 61
2020-03-26 19:00:00 17.6 12 Oeste 31 Oeste 0 1005.1 -0.8 81
2020-03-26 18:00:00 17.9 11 Oeste 31 Oeste 0 1005.1 -1.5 79
2020-03-26 17:00:00 18.5 11 Oeste 25 Oeste 0 1005.6 -1.5 75
2020-03-26 16:00:00 18.7 9 Oeste 28 Oeste 0 1005.9 -1.9 71
2020-03-26 15:00:00 18.6 14 Oeste 31 Oeste 0 1006.6 -2 74
2020-03-26 14:00:00 18.3 17 Oeste 28 Oeste 0 1007.1 -1.6 69
2020-03-26 13:00:00 17 17 Oeste 29 Oeste 0 1007.8 -0.9 71
2020-03-26 12:00:00 15.9 15 Oeste 25 Oeste 0 1008.6 0 78
2020-03-26 11:00:00 15.5 12 Oeste 23 Noroeste 0 1008.7 0 75
2020-03-26 10:00:00 14.2 12 Noroeste 22 Noroeste 0 1008.7 0.2 77
2020-03-26 09:00:00 12.8 10 Noroeste 19 Noroeste 0 1008.6 0.2 87
2020-03-26 08:00:00 11.5 7 Noroeste 13 Noroeste 0 1008.7 0.2 97
2020-03-26 07:00:00 11.7 6 Noroeste 12 Noroeste 0 1008.5 -0.6 94
2020-03-26 06:00:00 13.2 6 Noroeste 17 Noroeste 0 1008.4 -1.3 90
2020-03-26 05:00:00 15.2 8 Oeste 17 Oeste 0 1008.5 -2 92
2020-03-26 04:00:00 15.1 5 Oeste 13 Sudoeste 0 1009.1 -1.8 92
2020-03-26 03:00:00 14.8 4 Sudoeste 11 Oeste 0 1009.7 -1.5 94
2020-03-26 02:00:00 14.6 3 Oeste 10 Oeste 0 1010.5 -1.1 92
2020-03-26 01:00:00 15.1 6 Oeste 14 Oeste 0 1010.9 -0.5 90
2020-03-26 00:00:00 15.4 6 Oeste 14 Oeste 0 1011.2 -0.3 89
2020-03-25 23:00:00 15.5 5 Sudoeste 18 Sudoeste 0 1011.6 0.3 88
2020-03-25 22:00:00 15.6 8 Sudoeste 15 Sudoeste 0 1011.4 0.5 86
2020-03-25 21:00:00 15.3 6 Oeste 15 Oeste 0 1011.5 0.6 86
2020-03-25 20:00:00 15.4 9 Oeste 17 Oeste 0 1011.3 0.3 84
2020-03-25 19:00:00 16.1 7 Sudoeste 17 Sudoeste 0 1010.9 -0.3 80
2020-03-25 18:00:00 16.6 6 Oeste 18 Sudoeste 0 1010.9 -0.8 77
2020-03-25 17:00:00 16.8 10 Sudoeste 15 Sudoeste 0 1011 -1 74
2020-03-25 16:00:00 17.8 10 Sudoeste 15 Sur 0 1011.2 -1.4 70
2020-03-25 15:00:00 17.4 9 Sudoeste 14 Sudoeste 0 1011.7 -0.9 72
2020-03-25 14:00:00 17.4 9 Sur 17 Sudeste 0 1012 -0.5 73
2020-03-25 13:00:00 16.6 8 Sur 15 Sur 0 1012.6 0.8 80
2020-03-25 12:00:00 14.9 11 Sur 20 Sur 0.1 1012.6 1.2 83
2020-03-25 11:00:00 15 6 Sur 14 Sur 0.1 1012.5 1.5 84
2020-03-25 10:00:00 15.5 5 Sudeste 12 Este 0 1011.8 1.3 84
2020-03-25 09:00:00 14.5 5 Nordeste 9 Nordeste 0 1011.4 1.4 91
2020-03-25 08:00:00 13.8 5 Nordeste 8 Nordeste 0 1011 1.2 92
2020-03-25 07:00:00 14.2 4 Nordeste 6 Nordeste 0 1010.5 0.8 90
2020-03-25 06:00:00 15.1 3 Sur 9 Sudoeste 0 1010 0.4 84
2020-03-25 05:00:00 15.2 4 Sudoeste 9 Sudoeste 0 1009.8 0.1 86
2020-03-25 04:00:00 15.1 5 Sudoeste 13 Sur 0 1009.7 0.3 85
2020-03-25 03:00:00 15.2 8 Sur 19 Sur 0 1009.6 0.7 83
2020-03-25 02:00:00 15.8 8 Sudoeste 15 Sudoeste 0 1009.7 1.4 86
2020-03-25 01:00:00 15.3 3 Sur 6 Sur 0 1009.4 1.7 94
2020-03-25 00:00:00 15.5 3 Sur 7 Noroeste 0 1008.9 1.9 88
2020-03-24 23:00:00 15.9 4 Noroeste 10 Oeste 0 1008.3 2 88
2020-03-24 22:00:00 15.9 4 Noroeste 13 Oeste 0 1007.7 1.9 84
2020-03-24 21:00:00 16 5 Oeste 12 Oeste 0 1007 1.7 84
2020-03-24 20:00:00 16 6 Sudoeste 9 Sudoeste 0 1006.3 1.5 83
2020-03-24 19:00:00 16.3 5 Sudoeste 9 Sudoeste 0 1005.8 1.3 80
2020-03-24 18:00:00 17 6 Sudoeste 16 Sudoeste 0 1005.3 0.7 75
2020-03-24 17:00:00 18.2 10 Sudoeste 21 Este 0 1004.8 -0.1 73
2020-03-24 16:00:00 20.9 8 Nordeste 27 Nordeste 0 1004.5 -0.7 47
2020-03-24 15:00:00 21 12 Nordeste 26 Nordeste 0 1004.6 -0.6 46
2020-03-24 14:00:00 20.7 10 Nordeste 26 Este 0 1004.9 -0.3 51
2020-03-24 13:00:00 20.3 11 Este 27 Este 0 1005.2 0.4 55
2020-03-24 12:00:00 18.5 14 Nordeste 27 Nordeste 0 1005.2 0.6 59
2020-03-24 11:00:00 15.1 12 Nordeste 26 Nordeste 0 1005.2 1 71
2020-03-24 10:00:00 13.7 15 Nordeste 30 Nordeste 0 1004.8 0.5 77
2020-03-24 09:00:00 12.5 19 Nordeste 30 Nordeste 0 1004.6 0.5 79
2020-03-24 08:00:00 11.3 17 Nordeste 31 Nordeste 0 1004.2 -0.1 83
2020-03-24 07:00:00 11 12 Nordeste 26 Nordeste 0 1004.3 -0.2 87
2020-03-24 06:00:00 11.1 14 Nordeste 24 Nordeste 0 1004.1 -1 89
2020-03-24 05:00:00 10.7 15 Nordeste 26 Nordeste 0 1004.3 -1.6 93
2020-03-24 04:00:00 10.6 14 Nordeste 21 Nordeste 0 1004.5 -2.1 95
2020-03-24 03:00:00 10.6 12 Nordeste 26 Este 0.2 1005.1 -1.7 96
2020-03-24 02:00:00 11 14 Este 28 Este 1.3 1005.9 -0.8 95
2020-03-24 01:00:00 11.8 16 Este 27 Este 0.1 1006.6 0.4 87
2020-03-24 00:00:00 12.1 13 Nordeste 23 Nordeste 0 1006.8 1 81
2020-03-23 23:00:00 12 10 Nordeste 17 Nordeste 0 1006.7 1.5 82
2020-03-23 22:00:00 11.7 6 Este 12 Este 0 1006.2 1.5 84
2020-03-23 21:00:00 12.9 6 Nordeste -- -- -- 1005.8 1 75
2020-03-23 20:00:00 14.7 8 Nordeste 15 Nordeste 0 1005.2 0.4 73
2020-03-23 19:00:00 16.6 9 Nordeste 19 Nordeste 0 1004.7 -0.5 62
2020-03-23 18:00:00 15 4 Norte 15 Noroeste 2.6 1004.8 -0.9 83
2020-03-23 17:00:00 16.9 9 Oeste 17 Sudoeste 0 1004.8 -1.8 68
2020-03-23 16:00:00 16.9 9 Oeste 24 Oeste 0 1005.2 -2 68
2020-03-23 15:00:00 18.7 8 Este 23 Nordeste 0 1005.7 -2.1 53
2020-03-23 14:00:00 17.1 9 Nordeste 17 Norte 0 1006.6 -1.4 61
2020-03-23 13:00:00 17.5 8 Este 22 Este 0 1007.2 -0.9 57
2020-03-23 12:00:00 16.8 12 Este 25 Nordeste 0 1007.8 0.2 64
2020-03-23 11:00:00 16 13 Este 30 Este 0 1008 0.4 70
2020-03-23 10:00:00 14.5 10 Este 24 Este 0 1008.1 0.8 80
2020-03-23 09:00:00 12 14 Nordeste 22 Este 0 1007.6 0.4 89
2020-03-23 08:00:00 10.3 12 Nordeste 20 Este 0 1007.6 0.7 93
2020-03-23 07:00:00 10.5 9 Nordeste 15 Nordeste 0 1007.3 0.1 91
2020-03-23 06:00:00 10.7 8 Nordeste 13 Nordeste 0 1007.2 -0.3 94
2020-03-23 05:00:00 11 8 Nordeste 14 Norte 0 1006.9 -0.8 94
2020-03-23 04:00:00 10 9 Nordeste 14 Nordeste 0 1007.2 -0.8 96
2020-03-23 03:00:00 9.9 8 Nordeste 12 Nordeste 0 1007.5 -0.8 96
2020-03-23 02:00:00 10.3 6 Nordeste 12 Nordeste 0 1007.7 -0.5 95
2020-03-23 01:00:00 10.7 6 Nordeste 11 Nordeste 0 1008 -0.2 94
2020-03-23 00:00:00 10.7 5 Norte 9 Norte 0 1008.3 0.5 93
2020-03-22 23:00:00 11.1 5 Norte 8 Norte 0 1008.2 1.2 92
2020-03-22 22:00:00 10.7 4 Norte 6 Norte 0 1008.2 1.5 92
2020-03-22 21:00:00 11.5 0 Calma 6 Oeste 0 1007.8 1.8 88
2020-03-22 20:00:00 14.3 3 Sudoeste 10 Sudoeste 0 1007 1 73
2020-03-22 19:00:00 15.3 5 Sudoeste 13 Sudoeste 0 1006.7 0.8 68
2020-03-22 18:00:00 15.6 7 Sudoeste 11 Sudoeste 0 1006 -0.3 67
2020-03-22 17:00:00 14.5 5 Oeste 14 Sudoeste 0 1006 -0.9 74
2020-03-22 16:00:00 16 8 Sudoeste 15 Sudoeste 0 1005.9 -1.3 66
2020-03-22 15:00:00 15.8 6 Sudoeste 15 Sudoeste 0 1006.3 -0.9 68
2020-03-22 14:00:00 13.9 8 Sudoeste 13 Sudoeste 0 1006.9 -0.1 78
2020-03-22 13:00:00 13.5 6 Sudoeste 12 Sur 0 1007.2 0.5 80
2020-03-22 12:00:00 13.4 5 Sur 9 Sur 0 1007.2 1.3 83
2020-03-22 11:00:00 13.2 6 Este 15 Este 0 1007 1.3 82
2020-03-22 10:00:00 12.4 4 Este 10 Este 0 1006.7 1.4 91
2020-03-22 09:00:00 9.7 6 Nordeste 11 Nordeste 0 1005.9 0.8 99
2020-03-22 08:00:00 7.5 4 Nordeste 8 Nordeste 0 1005.7 0.7 99
2020-03-22 07:00:00 7.1 6 Nordeste 10 Nordeste 0 1005.3 0.2 99
2020-03-22 06:00:00 7.6 6 Norte 11 Norte 0 1005.1 -0.2 99
2020-03-22 05:00:00 7.2 6 Norte 9 Norte 0 1005 -0.5 99
2020-03-22 04:00:00 7 5 Nordeste 8 Nordeste 0 1005.1 -0.6 98
2020-03-22 03:00:00 7.7 3 Nordeste 9 Nordeste 0 1005.3 -0.8 98
2020-03-22 02:00:00 7.9 6 Nordeste 10 Nordeste 0 1005.5 -0.5 98
2020-03-22 01:00:00 7.9 6 Nordeste 11 Este 0 1005.7 -0.3 98
2020-03-22 00:00:00 8.4 4 Este 11 Nordeste 0.1 1006.1 0.3 97
2020-03-21 23:00:00 8.4 8 Nordeste 13 Nordeste 0 1006 0.7 97
2020-03-21 22:00:00 9.3 8 Nordeste 14 Nordeste 0 1006 1.1 97
2020-03-21 21:00:00 10.4 8 Nordeste 14 Nordeste 0 1005.8 1.1 97
2020-03-21 20:00:00 11.2 2 Este 6 Este 0 1005.3 0.3 93
2020-03-21 19:00:00 12.4 2 Nordeste 9 Oeste 0 1004.9 0.2 87
2020-03-21 18:00:00 11.5 0 Calma 20 Sudoeste 2.2 1004.7 0.1 86
2020-03-21 17:00:00 12.6 10 Norte 19 Noroeste 0 1005 -0.7 81
2020-03-21 16:00:00 15 8 Sudoeste 15 Sudoeste 0 1004.7 -2 73
2020-03-21 15:00:00 13.2 6 Nordeste 16 Este 3.2 1004.6 -2.8 90
2020-03-21 14:00:00 12.2 6 Este 14 Este 1.1 1005.7 -2.3 93
2020-03-21 13:00:00 12.4 8 Sudeste 27 Sudeste 0.8 1006.7 -1.5 94
2020-03-21 12:00:00 12.1 16 Sur 28 Sur 2 1007.4 -0.6 93
2020-03-21 11:00:00 12.3 16 Sur 33 Sur 0.5 1008 -0.1 87
2020-03-21 10:00:00 12.2 3 Sur 19 Sudeste 2.4 1008.2 0.4 87
2020-03-21 09:00:00 11.3 7 Este 16 Este 0 1008 0.2 96
2020-03-21 08:00:00 8.6 6 Este 12 Este 0 1008.1 0 98
2020-03-21 07:00:00 9.6 5 Nordeste 8 Nordeste 0 1007.8 -0.6 97
2020-03-21 06:00:00 10 3 Norte 13 Noroeste 0 1007.8 -0.7 93
2020-03-21 05:00:00 10.5 5 Noroeste 13 Noroeste 0 1008.1 -0.5 92
2020-03-21 04:00:00 12.2 4 Noroeste 21 Oeste 0 1008.4 -0.4 88
2020-03-21 03:00:00 12.6 8 Oeste 18 Oeste 0 1008.5 -0.4 88
2020-03-21 02:00:00 11.7 7 Noroeste 21 Oeste 0 1008.6 0.6 94
2020-03-21 01:00:00 12.2 10 Oeste 22 Oeste 0.1 1008.8 0.4 91
2020-03-21 00:00:00 10.8 5 Noroeste 23 Noroeste 0 1008.9 1.6 98
2020-03-20 23:00:00 10.8 14 Norte 26 Norte 5.5 1008 1.2 98
2020-03-20 22:00:00 11.8 18 Norte 46 Sur 5.4 1008.4 1.5 95
2020-03-20 21:00:00 14.8 26 Sur 46 Sur 4.9 1007.3 0.7 94
2020-03-20 20:00:00 15.2 14 Sur 27 Sur 4.6 1006.8 0 95
2020-03-20 19:00:00 15.3 14 Sur 30 Sur 3.7 1006.9 -0.3 93
2020-03-20 18:00:00 16.5 18 Sur 30 Sur 0.2 1006.6 -1.4 85
2020-03-20 17:00:00 17.7 14 Sudeste 26 Sur 0 1006.8 -1.5 81
2020-03-20 16:00:00 17.6 8 Sudeste 27 Sur 0.2 1007.2 -1.8 84
2020-03-20 15:00:00 16.9 13 Sudeste 24 Sur 0.7 1008 -1.8 85
2020-03-20 14:00:00 16.8 9 Sudeste 27 Sudeste 0.1 1008.3 -1.2 86
2020-03-20 13:00:00 16.9 12 Este 27 Este 0.6 1009 -0.7 82
2020-03-20 12:00:00 16.8 13 Sudeste 23 Sudeste 0 1009.8 0.5 76
2020-03-20 11:00:00 17.4 9 Sur 14 Sur 0 1009.5 0.7 73
2020-03-20 10:00:00 16.3 6 Este 17 Este 0 1009.7 1 78
2020-03-20 09:00:00 14.3 11 Este 18 Este 0 1009.3 0.8 87
2020-03-20 08:00:00 12.6 8 Este 14 Este 0 1008.8 0.6 90
2020-03-20 07:00:00 13.5 5 Este 14 Este 0 1008.7 0.4 83
2020-03-20 06:00:00 13.5 5 Este 18 Este 0 1008.5 -0.4 79
2020-03-20 05:00:00 14.4 11 Este 22 Este 0 1008.2 -1.2 73
2020-03-20 04:00:00 14 12 Nordeste 18 Nordeste 0 1008.3 -1.6 85
2020-03-20 03:00:00 16 9 Sudeste 24 Sudeste 0 1008.9 -1.3 79
2020-03-20 02:00:00 16.3 13 Sudeste 25 Sudeste 0 1009.4 -0.9 81
2020-03-20 01:00:00 15.9 9 Sudeste 21 Sur 0 1009.9 0 83
2020-03-20 00:00:00 15.7 8 Sur 16 Sur 0 1010.2 0.8 82
2020-03-19 23:00:00 16 4 Sudoeste 13 Oeste 0 1010.3 1.5 90
2020-03-19 22:00:00 15.5 6 Oeste 12 Oeste 0 1009.9 1.1 87
2020-03-19 21:00:00 14.8 6 Noroeste 9 Noroeste 0 1009.4 0.6 85
2020-03-19 20:00:00 16 5 Noroeste 12 Noroeste 0 1008.8 -0.7 80
2020-03-19 19:00:00 17.3 6 Noroeste 14 Oeste 0 1008.8 -1 74
2020-03-19 18:00:00 17.6 8 Oeste 14 Oeste 0 1008.8 -1 79
2020-03-19 17:00:00 18.9 6 Sudoeste 14 Oeste 0 1009.5 -1.1 73
2020-03-19 16:00:00 18.8 10 Sudoeste 15 Oeste 0 1009.8 -1.5 73
2020-03-19 15:00:00 18.4 10 Oeste 23 Este 0 1009.8 -2.3 73
2020-03-19 14:00:00 22 12 Este 25 Este 0 1010.6 -1.6 52
2020-03-19 13:00:00 20.1 10 Este 25 Sudeste 0 1011.3 -0.8 58
2020-03-19 12:00:00 18.8 12 Este 30 Nordeste 0 1012.1 0.3 62
2020-03-19 11:00:00 17.7 15 Este 27 Este 0 1012.2 0.9 66
2020-03-19 10:00:00 15.9 14 Nordeste 24 Nordeste 0 1012.1 0.7 72
2020-03-19 09:00:00 14.7 10 Nordeste 26 Nordeste 0 1011.8 0 78
2020-03-19 08:00:00 13.9 14 Nordeste 25 Nordeste 0 1011.3 -1 81
2020-03-19 07:00:00 13.6 12 Nordeste 19 Nordeste 0 1011.4 -1.6 82
2020-03-19 06:00:00 13.5 8 Nordeste 16 Nordeste 0 1011.8 -2.3 82
2020-03-19 05:00:00 13.2 9 Nordeste 15 Nordeste 0 1012.3 -2 84
2020-03-19 04:00:00 13.6 5 Este 9 Este 0 1013 -0.7 85
2020-03-19 03:00:00 13.7 4 Nordeste 9 Noroeste 0 1014.1 0.8 84
2020-03-19 02:00:00 13 4 Norte 9 Nordeste 0 1014.3 1.1 87
2020-03-19 01:00:00 13.2 0 Calma 4 Norte 0 1013.7 1 85
2020-03-19 00:00:00 14.7 4 Nordeste 6 Nordeste 0 1013.3 0.8 79
2020-03-18 23:00:00 15.4 3 Nordeste 10 Este 0 1013.2 1.3 75
2020-03-18 22:00:00 15.8 4 Este 7 Este 0 1012.7 1.4 75
2020-03-18 21:00:00 16.7 4 Este 7 Este 0 1012.5 1.6 75
2020-03-18 20:00:00 18.3 2 Sur 7 Sudeste 0 1011.9 0.9 74
2020-03-18 19:00:00 19.4 2 Sudoeste 22 Este 0 1011.3 0 66
2020-03-18 18:00:00 23 8 Sudeste 31 Este 0 1010.9 -0.5 50
2020-03-18 17:00:00 23.7 14 Este 33 Este 0 1011 -1.3 46
2020-03-18 16:00:00 23.9 17 Este 35 Este 0 1011.3 -1.8 47
2020-03-18 15:00:00 23.7 17 Este 36 Este 0 1011.4 -2 48
2020-03-18 14:00:00 23 12 Este 30 Este 0 1012.3 -1.4 54
2020-03-18 13:00:00 22.2 17 Este 31 Este 0 1013.1 -0.3 58
2020-03-18 12:00:00 20.4 14 Este 32 Este 0 1013.4 0.4 61
2020-03-18 11:00:00 18.4 14 Este 31 Este 0 1013.7 1.2 65
2020-03-18 10:00:00 16.6 15 Nordeste 27 Este 0 1013.4 1.1 70
2020-03-18 09:00:00 14.5 12 Nordeste 24 Nordeste 0 1013 0.9 80
2020-03-18 08:00:00 13.4 15 Nordeste 24 Nordeste 0 1012.5 0.5 85
2020-03-18 07:00:00 13.2 13 Nordeste 24 Nordeste 0 1012.3 0.1 87
2020-03-18 06:00:00 12.8 12 Nordeste 19 Nordeste 0 1012.1 0.2 90
2020-03-18 05:00:00 11.5 5 Nordeste 7 Nordeste 0 1012 -1.3 95
2020-03-18 04:00:00 12 0 Calma 10 Sudoeste 0 1012.2 -2 94
2020-03-18 03:00:00 12 5 Norte 21 Nordeste 0.1 1011.9 -3.3 91
2020-03-18 02:00:00 11.8 6 Norte 12 Norte 0.1 1013.3 -0.2 94
2020-03-18 01:00:00 12 4 Noroeste 7 Noroeste 0.3 1014.2 1 94
2020-03-18 00:00:00 13.2 4 Oeste 22 Sudoeste 1.7 1015.2 1.4 84
2020-03-17 23:00:00 12.2 4 Norte 23 Nordeste 0.7 1013.5 0 89
2020-03-17 22:00:00 13.6 14 Nordeste 27 Nordeste 0.2 1013.2 -0.4 74
2020-03-17 21:00:00 14.3 10 Nordeste 17 Nordeste 0 1013.8 0.4 65
2020-03-17 20:00:00 14.7 9 Nordeste 15 Nordeste 0 1013.5 0.4 64
2020-03-17 19:00:00 15.1 8 Nordeste 18 Este 0 1013.6 0.4 65
2020-03-17 18:00:00 15.5 10 Este 36 Este 0 1013.4 0.1 69
2020-03-17 17:00:00 16.7 13 Este 30 Este 0 1013.1 -1.4 60
2020-03-17 16:00:00 14.8 10 Nordeste 23 Nordeste 0 1013.2 -1.2 82
2020-03-17 15:00:00 12.8 15 Nordeste 26 Este 0 1013.3 -0.4 90
2020-03-17 14:00:00 10.7 15 Nordeste 29 Nordeste 0.7 1014.5 1 95
2020-03-17 13:00:00 10.8 19 Sudeste 46 Sudeste 2.3 1014.4 1.6 88
2020-03-17 12:00:00 10 15 Este 30 Este 0.3 1013.7 1.4 97
2020-03-17 11:00:00 7.6 18 Este 37 Este 2.5 1013.5 1.5 96
2020-03-17 10:00:00 8.6 17 Este 29 Este 0.2 1012.8 1.2 97
2020-03-17 09:00:00 8.5 12 Nordeste 19 Nordeste 0 1012.3 1 98
2020-03-17 08:00:00 7.7 9 Este 16 Nordeste 0 1012 1 97
2020-03-17 07:00:00 8.2 8 Nordeste 13 Nordeste 0 1011.6 0.5 96
2020-03-17 06:00:00 8.8 6 Nordeste 12 Nordeste 0 1011.3 -0.3 97
2020-03-17 05:00:00 9.4 5 Nordeste 10 Norte 0.1 1011 -0.9 97
2020-03-17 04:00:00 9.4 0 Calma 6 Norte 0.6 1011.1 -1.5 96
2020-03-17 03:00:00 8.9 4 Noroeste 13 Norte 1.3 1011.6 -1.3 95
2020-03-17 02:00:00 9 7 Norte 15 Norte 1.3 1011.9 -0.7 94
2020-03-17 01:00:00 9 7 Norte 23 Norte 1.5 1012.6 0.9 93
2020-03-17 00:00:00 10.1 13 Nordeste 30 Norte 0 1012.9 1 84
2020-03-16 23:00:00 13 5 Norte 8 Norte 0 1012.6 1.3 50
2020-03-16 22:00:00 13.8 3 Norte 16 Nordeste 0 1011.7 0.9 47
2020-03-16 21:00:00 14.5 7 Norte 16 Norte 0 1011.9 1.5 43
2020-03-16 20:00:00 14.9 7 Norte 19 Norte 0 1011.3 1 41
2020-03-16 19:00:00 15.9 13 Norte 33 Noroeste 0 1010.8 0.3 40
2020-03-16 18:00:00 17.4 14 Norte 39 Noroeste 0 1010.4 -0.1 34
2020-03-16 17:00:00 17.5 19 Noroeste 40 Noroeste 0 1010.3 -1 33
2020-03-16 16:00:00 17.6 21 Noroeste 43 Noroeste 0 1010.5 -1.5 32
2020-03-16 15:00:00 18.4 19 Noroeste 49 Oeste 0 1010.5 -2.5 31
2020-03-16 14:00:00 17.6 23 Noroeste 44 Noroeste 0 1011.3 -2 31
2020-03-16 13:00:00 16.7 21 Noroeste 41 Noroeste 0 1012 -1.4 37
2020-03-16 12:00:00 14.8 16 Noroeste 30 Noroeste 0 1013 -0.4 42
2020-03-16 11:00:00 13.4 15 Norte 33 Norte 0 1013.3 0.8 47
2020-03-16 10:00:00 11.4 18 Noroeste 34 Oeste 0 1013.4 1.4 58
2020-03-16 09:00:00 10.5 17 Noroeste 38 Noroeste 0 1013.4 2 64
2020-03-16 08:00:00 9 18 Noroeste 39 Norte 0 1012.5 1.6 66
2020-03-16 07:00:00 8.3 15 Norte 32 Noroeste 0 1012 1.7 69
2020-03-16 06:00:00 8.4 11 Norte 30 Norte 0 1011.4 0.9 69
2020-03-16 05:00:00 9.1 15 Norte 36 Norte 0 1010.9 0.4 64
2020-03-16 04:00:00 10.6 22 Norte 42 Norte 0 1010.3 -0.2 57
2020-03-16 03:00:00 11.5 22 Norte 46 Noroeste 0 1010.5 -0.1 53
2020-03-16 02:00:00 13 21 Norte 40 Norte 0 1010.5 0 49
2020-03-16 01:00:00 13.9 23 Noroeste 41 Norte 0 1010.5 0.1 62
2020-03-16 00:00:00 15.7 22 Noroeste 40 Noroeste 0 1010.6 0.8 63
2020-03-15 23:00:00 16.5 8 Oeste 24 Oeste 0 1010.5 1.2 87
2020-03-15 22:00:00 16.4 14 Oeste 24 Oeste 0 1010.4 1.2 87
2020-03-15 21:00:00 16.1 11 Oeste 25 Oeste 0 1009.8 0.7 87
2020-03-15 20:00:00 16.5 14 Oeste 23 Oeste 0 1009.3 -0.3 90
2020-03-15 19:00:00 17.5 12 Oeste 24 Oeste 0 1009.2 -0.6 83
2020-03-15 18:00:00 18.4 14 Oeste 24 Oeste 0 1009.1 -1.3 78
2020-03-15 17:00:00 18.7 12 Oeste 22 Oeste 0 1009.6 -1.9 72
2020-03-15 16:00:00 18.2 15 Oeste 22 Oeste 0 1009.8 -2.2 75
2020-03-15 15:00:00 18.8 11 Oeste 19 Oeste 0 1010.4 -2 73
2020-03-15 14:00:00 18.2 12 Oeste 22 Oeste 0 1011.5 -0.8 73
2020-03-15 13:00:00 18.4 8 Sudoeste 15 Sudoeste 0 1012 -0.2 75
2020-03-15 12:00:00 17.4 6 Sudoeste 10 Sudoeste 0 1012.4 0.4 75
2020-03-15 11:00:00 16.5 7 Sur 15 Sudoeste 0 1012.3 0.5 77
2020-03-15 10:00:00 16.8 12 Sur 17 Sur 0 1012.2 0.6 78
2020-03-15 09:00:00 15.7 11 Sudoeste 18 Sur 0 1012 0.7 86
2020-03-15 08:00:00 14.9 12 Sur 15 Sur 0 1011.8 0.3 89
2020-03-15 07:00:00 13.4 3 Sur 9 Sur 0 1011.6 0 93
2020-03-15 06:00:00 14.7 5 Sudoeste 12 Sur 0 1011.3 -0.7 93
2020-03-15 05:00:00 11.3 0 Calma 2 Sur 0 1011.5 -0.5 98
2020-03-15 04:00:00 10.4 0 Calma -- -- 0 1011.6 -0.7 98
2020-03-15 03:00:00 10.4 0 Calma -- -- 0 1012 -0.8 96
2020-03-15 02:00:00 10.5 0 Calma 3 Sur 0 1012 -0.8 94
2020-03-15 01:00:00 11.5 0 Calma 2 Norte 0 1012.3 -0.3 95
2020-03-15 00:00:00 11.4 0 Calma 3 Norte 0 1012.8 0.3 93
2020-03-14 23:00:00 12.5 0 Calma 8 Norte 0 1012.8 0.6 90
2020-03-14 22:00:00 13.3 4 Norte 11 Norte 0 1012.6 0.3 88
2020-03-14 21:00:00 14.1 5 Norte 14 Norte 0 1012.5 0.1 86
2020-03-14 20:00:00 14.9 6 Noroeste 13 Oeste 0 1012.2 -0.4 83
2020-03-14 19:00:00 17 7 Oeste 17 Noroeste 0 1012.3 -0.8 78
2020-03-14 18:00:00 17.4 10 Oeste 17 Oeste 0 1012.4 -1.6 77
2020-03-14 17:00:00 17.5 10 Oeste 17 Oeste 0 1012.6 -2.3 74
2020-03-14 16:00:00 18.2 9 Oeste 16 Oeste 0 1013.1 -2.5 72
2020-03-14 15:00:00 18.5 8 Sudoeste 14 Sudoeste 0 1014 -1.5 69
2020-03-14 14:00:00 18 9 Sudoeste 13 Sudoeste 0 1014.9 -1.1 71
2020-03-14 13:00:00 17.6 10 Sur 14 Sudoeste 0 1015.6 0 72
2020-03-14 12:00:00 16.8 6 Sur 12 Sur 0 1015.5 0.5 78
2020-03-14 11:00:00 15.4 6 Este 12 Este 0 1016 1.4 84
2020-03-14 10:00:00 14.8 6 Sudeste 12 Sur 0 1015.6 1.6 89
2020-03-14 09:00:00 14.6 5 Este 11 Este 0 1015 1.2 94
2020-03-14 08:00:00 14.3 5 Sudeste 11 Sudeste 0 1014.6 1.1 95
2020-03-14 07:00:00 14.9 5 Sudeste 12 Sudeste 0 1014 0.4 94
2020-03-14 06:00:00 14.9 6 Sur 13 Sur 0 1013.8 -0.1 97
2020-03-14 05:00:00 14.6 5 Sur 10 Sudeste 0 1013.5 -0.6 99
2020-03-14 04:00:00 14.8 5 Sudoeste 11 Sudoeste 0 1013.6 -0.6 97
2020-03-14 03:00:00 15.2 8 Sudoeste 14 Sur 0 1013.9 -0.2 96
2020-03-14 02:00:00 14.9 5 Sudoeste 13 Sudoeste 0 1014.1 0.1 98
2020-03-14 01:00:00 14.8 7 Sudoeste 12 Sudoeste 0 1014.2 0.6 98
2020-03-14 00:00:00 14.8 4 Sudoeste 9 Sur 0 1014.1 0.8 97
2020-03-13 23:00:00 14.8 4 Oeste 9 Oeste 0 1014 1.1 96
2020-03-13 22:00:00 14.7 5 Oeste 12 Noroeste 0 1013.6 0.8 95
2020-03-13 21:00:00 14.8 6 Oeste 14 Oeste 0 1013.3 0.7 94
2020-03-13 20:00:00 15.1 6 Oeste 13 Oeste 0 1012.9 0.2 90
2020-03-13 19:00:00 15.6 8 Sudoeste 18 Sudoeste 0 1012.8 -0.3 87
2020-03-13 18:00:00 16.8 7 Sudoeste 14 Sudoeste 0 1012.6 -0.9 83
2020-03-13 17:00:00 17 8 Sudoeste 13 Sudoeste 0 1012.7 -1.7 83
2020-03-13 16:00:00 17.4 10 Sudoeste 19 Sudoeste 0 1013.1 -1.6 79
2020-03-13 15:00:00 17 9 Sudoeste 12 Sudoeste 0 1013.5 -1.4 83
2020-03-13 14:00:00 15.8 8 Sudoeste 11 Sudoeste 0 1014.4 -0.4 90
2020-03-13 13:00:00 15.4 5 Sur 9 Sudoeste 0 1014.7 0 89
2020-03-13 12:00:00 14.4 5 Sur 8 Sudoeste 0 1014.9 0.9 93
2020-03-13 11:00:00 14.2 0 Calma 6 Este 0 1014.8 1.4 96
2020-03-13 10:00:00 13.8 0 Calma 7 Este 0 1014.7 1.6 98
2020-03-13 09:00:00 13.5 0 Calma 3 Sudeste 0 1014 1 99
2020-03-13 08:00:00 13.2 0 Calma 5 Nordeste 0 1013.4 0.3 98
2020-03-13 07:00:00 13.3 0 Calma 5 Norte 0 1013.1 0 97
2020-03-13 06:00:00 13.5 0 Calma 5 Sudoeste 0 1013 -0.4 95
2020-03-13 05:00:00 13.5 3 Sudoeste 10 Sudoeste 0 1013.1 -0.2 95
2020-03-13 04:00:00 13.1 4 Sudoeste 12 Sudoeste 0 1013.1 -0.5 95
2020-03-13 03:00:00 13.7 4 Sudoeste 11 Sudoeste 0 1013.4 -0.5 96
2020-03-13 02:00:00 14.2 3 Oeste 10 Oeste 0 1013.3 -0.9 96
2020-03-13 01:00:00 14.2 5 Noroeste 12 Oeste 0 1013.6 -0.3 96
2020-03-13 00:00:00 14.5 5 Noroeste 15 Oeste 0 1013.9 0.5 96
2020-03-12 23:00:00 13.8 5 Oeste 13 Oeste 0 1014.2 1 99
2020-03-12 22:00:00 11.6 0 Calma 4 Sudoeste 0 1013.9 0.8 94
2020-03-12 21:00:00 13.3 0 Calma 6 Oeste 0 1013.4 0.3 93
2020-03-12 20:00:00 15.8 0 Calma 5 Sudoeste 0 1013.2 0 87
2020-03-12 19:00:00 17.5 3 Sudoeste 10 Oeste 0 1013.1 -0.4 82
2020-03-12 18:00:00 17.3 6 Oeste 11 Oeste 0 1013.1 -1.4 86
2020-03-12 17:00:00 16.9 4 Sudoeste 10 Sudoeste 0 1013.2 -1.5 87
2020-03-12 16:00:00 17.1 3 Sudoeste 9 Sudoeste 0 1013.5 -2 86
2020-03-12 15:00:00 16.6 6 Sudoeste 12 Sur 0 1014.5 -1.3 89
2020-03-12 14:00:00 16.8 6 Sur 16 Sur 0 1014.7 -1.1 87
2020-03-12 13:00:00 17.8 7 Sur 12 Sur 0 1015.5 -0.1 83
2020-03-12 12:00:00 17.5 5 Sur 9 Sur 0 1015.8 0.9 82
2020-03-12 11:00:00 16.5 5 Sudoeste 17 Sur 0 1015.8 1.3 85
2020-03-12 10:00:00 16.3 12 Sur 18 Sudoeste 0 1015.6 1.6 88
2020-03-12 09:00:00 15.3 5 Sur 11 Sudeste 0 1014.9 0.9 95
2020-03-12 08:00:00 14.8 5 Sudoeste 10 Sur 0 1014.5 0.7 95
2020-03-12 07:00:00 14.4 5 Sur 16 Sudoeste 0 1014 0 96
2020-03-12 06:00:00 14.5 7 Sudoeste 20 Sur 0 1014 -0.1 97
2020-03-12 05:00:00 14.5 10 Sur 21 Sur 0 1013.8 -0.9 98
2020-03-12 04:00:00 11.4 5 Sur 15 Este 0 1014 -0.8 91
2020-03-12 03:00:00 11.8 6 Este 8 Este 0 1014.1 -1 79
2020-03-12 02:00:00 12.3 4 Este 6 Este 0 1014.7 -0.5 78
2020-03-12 01:00:00 12.2 3 Este 5 Nordeste 0 1014.8 0.2 79
2020-03-12 00:00:00 13.3 0 Calma 6 Noroeste 0 1015.1 0.9 74
2020-03-11 23:00:00 15.1 4 Noroeste 12 Oeste 0 1015.2 1.1 69
2020-03-11 22:00:00 14.7 2 Norte 5 Norte 0 1014.6 0.7 71
2020-03-11 21:00:00 16.6 2 Noroeste 8 Noroeste 0 1014.2 0.4 69
2020-03-11 20:00:00 18.2 7 Noroeste 15 Oeste 0 1014.1 -0.2 67
2020-03-11 19:00:00 22.8 3 Sudeste 12 Este 0 1013.9 -0.7 44
2020-03-11 18:00:00 22.7 3 Sudeste 12 Oeste 0 1013.8 -1.4 52
2020-03-11 17:00:00 22.2 3 Sudeste 13 Oeste 0 1014.3 -1.4 56
2020-03-11 16:00:00 21.9 6 Sudoeste 19 Oeste 0 1014.6 -1.7 58
2020-03-11 15:00:00 28.1 5 Sudeste 21 Este 0 1015.2 -1.7 34
2020-03-11 14:00:00 26.7 11 Este 22 Este 0 1015.7 -1.2 34
2020-03-11 13:00:00 25.2 15 Nordeste 30 Este 0 1016.3 -0.8 35
2020-03-11 12:00:00 24.7 17 Este 34 Nordeste 0 1016.9 -0.2 37
2020-03-11 11:00:00 21.3 21 Nordeste 37 Este 0 1016.9 -0.1 44
2020-03-11 10:00:00 19.2 19 Este 31 Nordeste 0 1017.1 -0.3 49
2020-03-11 09:00:00 15.7 18 Nordeste 28 Nordeste 0 1017.1 -0.4 59
2020-03-11 08:00:00 13.3 18 Nordeste 26 Nordeste 0 1017 -0.6 67
2020-03-11 07:00:00 13.7 12 Nordeste 21 Nordeste 0 1017.4 -0.4 68
2020-03-11 06:00:00 12.8 12 Nordeste 17 Nordeste 0 1017.5 -0.9 68
2020-03-11 05:00:00 12.1 9 Nordeste 14 Nordeste 0 1017.6 -1.3 64
2020-03-11 04:00:00 12.4 6 Este 12 Este 0 1017.8 -1.5 62
2020-03-11 03:00:00 12.7 6 Este 14 Este 0 1018.4 -1.2 63
2020-03-11 02:00:00 12.7 5 Este 8 Este 0 1018.9 -0.7 63
2020-03-11 01:00:00 12.5 5 Este 8 Este 0 1019.3 0.1 69
2020-03-11 00:00:00 12.5 4 Este 7 Este 0 1019.6 0.5 73
2020-03-10 23:00:00 13.4 3 Norte 6 Noroeste 0 1019.6 0.6 69
2020-03-10 22:00:00 15.8 0 Calma 7 Sur 0 1019.2 0.4 61
2020-03-10 21:00:00 17 4 Sudoeste 8 Sudoeste 0 1019.1 0.5 56
2020-03-10 20:00:00 18.9 0 Calma 7 Sudoeste 0 1019 0.3 48
2020-03-10 19:00:00 22.4 3 Oeste 12 Oeste 0 1018.8 -0.1 42
2020-03-10 18:00:00 24.2 6 Sur 15 Sur 0 1018.6 -0.7 33
2020-03-10 17:00:00 24.5 9 Sur 30 Este 0 1018.7 -1.4 36
2020-03-10 16:00:00 28.3 12 Este 27 Este 0 1018.9 -1.4 25
2020-03-10 15:00:00 28.1 13 Este 31 Este 0 1019.3 -1.7 25
2020-03-10 14:00:00 27.1 14 Este 33 Este 0 1020.1 -0.6 26
2020-03-10 13:00:00 25.3 19 Nordeste 37 Este 0 1020.3 -0.3 26
2020-03-10 12:00:00 23.9 18 Nordeste 43 Nordeste 0 1021 0.5 29
2020-03-10 11:00:00 22.6 22 Nordeste 42 Este 0 1020.7 0.5 31
2020-03-10 10:00:00 19.1 19 Nordeste 37 Nordeste 0 1020.6 0.8 40
2020-03-10 09:00:00 15.6 12 Nordeste 20 Nordeste 0 1020.5 0.7 48
2020-03-10 08:00:00 12.1 6 Nordeste 17 Norte 0 1020.2 0.6 62
2020-03-10 07:00:00 11.4 11 Nordeste 17 Nordeste 0 1019.8 0.2 69
2020-03-10 06:00:00 11.4 6 Nordeste 13 Norte 0 1019.8 -0.5 69
2020-03-10 05:00:00 11.9 7 Nordeste 12 Norte 0 1019.6 -0.9 69
2020-03-10 04:00:00 12.2 7 Norte 12 Norte 0 1019.6 -1 65
2020-03-10 03:00:00 12.9 4 Oeste 12 Norte 0 1020.3 -0.5 57
2020-03-10 02:00:00 14.4 7 Norte 15 Norte 0 1020.5 -0.3 50
2020-03-10 01:00:00 15.2 6 Norte 19 Norte 0 1020.6 0.1 46
2020-03-10 00:00:00 16.1 8 Norte 20 Norte 0 1020.8 0.9 43
2020-03-09 23:00:00 17.2 12 Norte 22 Norte 0 1020.8 1.4 39
2020-03-09 22:00:00 18.3 11 Norte 24 Norte 0 1020.5 1.3 34
2020-03-09 21:00:00 19.1 10 Norte 19 Norte 0 1019.9 0.3 31
2020-03-09 20:00:00 20.1 8 Noroeste 21 Noroeste 0 1019.4 -0.3 33
2020-03-09 19:00:00 22.9 12 Noroeste 26 Noroeste 0 1019.2 -0.8 27
2020-03-09 18:00:00 19.2 6 Noroeste 20 Oeste 0 1019.6 -1.2 66
2020-03-09 17:00:00 24.1 8 Oeste 28 Noroeste 0 1019.7 -2.2 37
2020-03-09 16:00:00 23.3 7 Noroeste 24 Sudoeste 0 1020 -2.7 34
2020-03-09 15:00:00 19.2 9 Sudoeste 21 Oeste 0 1020.8 -2.5 66
2020-03-09 14:00:00 18.3 10 Oeste 20 Oeste 0 1021.9 -1.2 68
2020-03-09 13:00:00 19.1 8 Oeste 19 Oeste 0 1022.7 -0.3 64
2020-03-09 12:00:00 19.4 0 Calma 12 Noroeste 0 1023.3 0.7 55
2020-03-09 11:00:00 17.4 5 Norte 13 Norte 0 1023.1 0.7 58
2020-03-09 10:00:00 14.4 8 Norte 18 Norte 0 1023 1.5 75
2020-03-09 09:00:00 11.8 6 Noroeste 17 Norte 0 1022.6 1.2 89
2020-03-09 08:00:00 10 6 Noroeste 19 Noroeste 0 1022.4 0.9 94
2020-03-09 07:00:00 10.3 10 Norte 18 Norte 0 1021.5 0 93
2020-03-09 06:00:00 11 12 Norte 21 Norte 0 1021.4 0 91
2020-03-09 05:00:00 10.7 6 Norte 12 Nordeste 0 1021.5 0.1 88
2020-03-09 04:00:00 12.2 0 Calma 27 Norte 0 1021.5 0.5 78
2020-03-09 03:00:00 13.3 16 Norte 26 Norte 0 1021.4 0 74
2020-03-09 02:00:00 14.1 16 Norte 27 Norte 0 1021.4 -0.1 69
2020-03-09 01:00:00 15.1 14 Norte 28 Norte 0 1021 -0.5 62
2020-03-09 00:00:00 15.4 12 Norte 26 Norte 0 1021.4 0.3 60